< Typhoon 198222 1982 Season Typhoon 198224 >
Typhoon 198223 (OWEN)
General InformationTrack Information on Google MapsDetailed Wind InformationList of All Images || Disaster Info.ResourceGoogle EarthGE AnimationAtom FeedGeoJSON
Detalied Best Track (Time Zone = UTC)
Year Month Day Hour Lat. Long. Pressure (hPa) Wind (kt) Class Image Chart
1982 10 14 12 12.0 160.0 1006 0 2 Image Chart
1982 10 14 18 11.5 159.0 1004 0 2 Image Chart
1982 10 15 00 11.2 157.9 1004 0 2 Image Chart
1982 10 15 06 11.5 156.5 1002 0 2 Image Chart
1982 10 15 12 12.3 155.1 1000 0 2 Image Chart
1982 10 15 18 13.3 153.8 998 0 2 Image Chart
1982 10 16 00 14.5 152.4 996 35 3 Image Chart
1982 10 16 06 14.6 150.9 996 40 3 Image Chart
1982 10 16 12 15.2 149.5 996 45 3 Image Chart
1982 10 16 18 15.8 148.6 994 45 3 Image Chart
1982 10 17 00 16.3 148.0 992 45 3 Image Chart
1982 10 17 06 16.6 147.3 990 45 3 Image Chart
1982 10 17 12 16.7 146.9 985 50 4 Image Chart
1982 10 17 18 17.0 146.1 985 60 4 Image Chart
1982 10 18 00 17.2 145.2 985 60 4 Image Chart
1982 10 18 06 17.2 144.7 980 60 4 Image Chart
1982 10 18 12 17.3 144.2 980 60 4 Image Chart
1982 10 18 18 17.9 143.8 975 65 5 Image Chart
1982 10 19 00 19.0 143.5 965 70 5 Image Chart
1982 10 19 06 20.0 143.3 965 70 5 Image Chart
1982 10 19 12 21.0 143.2 960 75 5 Image Chart
1982 10 19 18 22.0 143.3 950 75 5 Image Chart
1982 10 20 00 23.2 143.9 945 90 5 Image Chart
1982 10 20 06 24.6 144.9 945 85 5 Image Chart
1982 10 20 12 26.0 146.0 945 85 5 Image Chart
1982 10 20 18 27.5 147.3 940 85 5 Image Chart
1982 10 21 00 28.8 149.0 940 85 5 Image Chart
1982 10 21 06 29.8 150.6 950 80 5 Image Chart
1982 10 21 12 30.7 152.4 955 75 5 Image Chart
1982 10 21 18 31.0 153.9 965 70 5 Image Chart
1982 10 22 00 30.8 155.0 970 55 4 Image Chart
1982 10 22 06 30.1 156.1 975 50 4 Image Chart
1982 10 22 12 29.1 157.0 980 45 3 Image Chart
1982 10 22 18 28.0 158.0 985 45 3 Image Chart
1982 10 23 00 27.2 159.3 985 45 3 Image Chart
1982 10 23 06 26.3 160.5 980 50 4 Image Chart
1982 10 23 12 25.9 161.6 980 50 4 Image Chart
1982 10 23 18 25.6 162.9 980 50 4 Image Chart
1982 10 24 00 25.4 164.0 980 50 4 Image Chart
1982 10 24 06 25.4 164.9 980 50 4 Image Chart
1982 10 24 12 25.4 165.6 980 50 4 Image Chart
1982 10 24 18 25.5 166.1 980 50 4 Image Chart
1982 10 25 00 25.5 166.5 980 50 4 Image Chart
1982 10 25 06 25.7 167.0 980 50 4 Image Chart
1982 10 25 12 26.8 167.5 980 50 4 Image Chart
1982 10 25 18 27.4 167.1 980 50 4 Image Chart
1982 10 26 00 27.7 166.8 985 45 3 Image Chart
1982 10 26 06 28.1 166.5 985 45 3 Image Chart
1982 10 26 12 28.7 165.8 985 45 3 Image Chart
1982 10 26 18 29.4 165.2 990 40 3 Image Chart
1982 10 27 00 30.0 164.6 996 35 3 Image Chart
1982 10 27 06 30.8 164.7 996 35 3 Image Chart
1982 10 27 12 31.6 165.6 996 35 3 Image Chart
1982 10 27 18 32.5 167.2 996 35 3 Image Chart
1982 10 28 00 33.0 169.0 1000 0 6 Image Chart
1982 10 28 06 34.0 171.0 1000 0 6 Image Chart
1982 10 28 12 35.0 173.0 1000 0 6 Image Chart
1982 10 28 18 35.5 175.5 1004 0 6 Image Chart
1982 10 29 00 36.0 178.0 1004 0 6 Image Chart
Japan Meteorological Agency Best Track Data | Correction Date : 1992-10-21
< Typhoon 198222 1982 Season Typhoon 198224 >

Help